Cascade Locks, OR

5:07 PM PST on December 17, 2014 (GMT -0800)
Hood River - West Ridge Drive | Change Station
CLOSE
Current Station
Personal Weather Station
Location: Hood River, OR
Elevation: 570 ft
Nearby Weather Stations
Active Advisory: Special Statement

Elev 570 ft 45.71 °N, 121.57 °W | Updated 1 minute ago

Overcast
Overcast
39.3 °F
Feels Like 39 °F
N
1.3
Wind Variable Wind from SSE
Gusts 2.3 mph

Today
High -- | Low -- °F
--% Chance of Precip.
Yesterday
High -- | Low -- °F
Precip. -- in
7:42 AM 4:24 PM
Waning Crescent, 18% visible
Pressure 29.90 in
Visibility 10.0 miles
Clouds Mostly Cloudy 2800 ft
Overcast 3400 ft
Windchill 39 °F
Dew Point 37 °F
Humidity 90%
Rainfall 0.01 in
Snow Depth Not available.
UV 0 out of 12
Pollen 1.30 out of 12
Air Quality Not available.
Flu Activity Not available.
METAR KTTD 180053Z 09017KT 10SM BKN028 OVC034 06/04 A2990 RMK AO2 RAE45 SLP125 P0001 T00610039

More Conditions Fewer Conditions

Pressure 29.90 in
Visibility 10.0 miles
Clouds Mostly Cloudy 2800 ft
Overcast 3400 ft
Windchill 39 °F
Dew Point 37 °F
Humidity 90%
Rainfall 0.01 in
Snow Depth Not available.
UV 0 out of 12
Pollen 1.30 out of 12
Air Quality Not available.
Flu Activity Not available.
METAR KTTD 180053Z 09017KT 10SM BKN028 OVC034 06/04 A2990 RMK AO2 RAE45 SLP125 P0001 T00610039

More Conditions Fewer Conditions

10-Day Weather Forecast

Almanac

Astronomy

Dec. 17, 2014 Rise Set
Actual Time
Civil Twilight
Nautical Twilight
Astronomical Twilight
Moon
Length of Visible Light
Length of Day
Tomorrow will be .
, % of the Moon is Illuminated

Today's Extremes

State Highs State Lows

Community

WunderPhotos

Upload Photos

1,778,843 photos uploaded!

WunderBlogs® & News

Nearby

Air Quality

  Air Quality AQ Index Pollutant
Not available.

Snow Depth

Station Depth Elevation

Earthquake Activity

City Distance Mag. Time & Date
Minimum magnitude displayed is 2.5.

Coastal Water Temperatures

Place Temperature

Nearby Weather Stations